createdAt,value
2022-10-10T00:02:16.572Z,4.47
2022-10-10T00:04:49.046Z,4.77
2022-10-10T00:07:18.782Z,5.33
2022-10-10T00:09:48.821Z,4.77
2022-10-10T00:12:18.592Z,5.20
2022-10-10T00:14:48.319Z,6.93
2022-10-10T00:17:18.057Z,5.00
2022-10-10T00:19:50.391Z,4.00
2022-10-10T00:22:20.460Z,5.83
2022-10-10T00:24:50.235Z,3.77
2022-10-10T00:27:19.957Z,4.67
2022-10-10T00:29:49.690Z,4.90
2022-10-10T00:32:19.495Z,4.70
2022-10-10T00:34:51.831Z,5.68
2022-10-10T00:37:21.579Z,4.50
2022-10-10T00:39:51.601Z,4.20
2022-10-10T00:42:22.115Z,7.00
2022-10-10T00:45:23.515Z,4.70
2022-10-10T00:47:56.130Z,5.30
2022-10-10T00:50:29.959Z,4.33
2022-10-10T00:53:00.945Z,5.17
2022-10-10T00:55:31.034Z,4.50
2022-10-10T00:58:01.077Z,4.80
2022-10-10T01:00:30.914Z,4.33
2022-10-10T01:03:00.692Z,6.50
2022-10-10T01:05:36.318Z,5.30
2022-10-10T01:08:09.548Z,5.07
2022-10-10T01:10:48.635Z,4.20
2022-10-10T01:13:28.135Z,4.60
2022-10-10T01:16:04.049Z,5.10
2022-10-10T01:18:44.809Z,4.37
2022-10-10T01:21:27.659Z,4.60
2022-10-10T01:24:16.753Z,5.87
2022-10-10T01:27:21.529Z,5.70
2022-10-10T01:29:55.797Z,5.28
2022-10-10T01:32:32.561Z,4.10
2022-10-10T01:35:25.541Z,4.13
2022-10-10T01:38:02.854Z,4.60
2022-10-10T01:40:38.893Z,4.27
2022-10-10T01:43:11.666Z,4.40
2022-10-10T01:45:47.052Z,3.73
2022-10-10T01:48:18.507Z,5.30
2022-10-10T01:51:06.813Z,4.03
2022-10-10T01:53:46.648Z,4.43
2022-10-10T01:56:27.358Z,4.73
2022-10-10T01:59:14.458Z,5.53
2022-10-10T02:01:54.265Z,4.20
2022-10-10T02:04:31.695Z,5.03
2022-10-10T02:07:06.709Z,4.10
2022-10-10T02:09:40.498Z,3.33
2022-10-10T02:12:13.843Z,4.80
2022-10-10T02:14:47.533Z,4.80
2022-10-10T02:17:20.754Z,4.93
2022-10-10T02:19:54.362Z,4.47
2022-10-10T02:22:26.556Z,4.50
2022-10-10T02:24:57.206Z,5.70
2022-10-10T02:27:33.047Z,3.88
2022-10-10T02:30:05.437Z,4.13
2022-10-10T02:32:41.350Z,4.10
2022-10-10T02:35:15.655Z,4.53
2022-10-10T02:37:46.369Z,4.40
2022-10-10T02:40:20.233Z,4.80
2022-10-10T02:42:52.693Z,4.72
2022-10-10T02:45:23.835Z,4.63
2022-10-10T02:47:56.546Z,4.83
2022-10-10T02:50:26.514Z,4.70
2022-10-10T02:52:56.254Z,4.50
2022-10-10T02:55:26.464Z,5.40
2022-10-10T02:57:56.366Z,4.90
2022-10-10T03:00:26.111Z,6.80
2022-10-10T03:02:58.512Z,4.70
2022-10-10T03:05:28.245Z,5.43
2022-10-10T03:07:57.974Z,4.23
2022-10-10T03:10:27.725Z,5.30
2022-10-10T03:12:57.510Z,4.90
2022-10-10T03:15:27.381Z,4.60
2022-10-10T03:17:59.815Z,5.03
2022-10-10T03:20:29.632Z,5.80
2022-10-10T03:22:59.390Z,7.07
2022-10-10T03:25:29.215Z,5.13
2022-10-10T03:27:58.997Z,5.13
2022-10-10T03:30:28.754Z,4.63
2022-10-10T03:33:01.197Z,5.37
2022-10-10T03:35:30.983Z,5.00
2022-10-10T03:38:01.823Z,5.87
2022-10-10T03:40:32.253Z,4.30
2022-10-10T03:43:02.128Z,4.67
2022-10-10T03:45:31.877Z,5.10
2022-10-10T03:48:04.250Z,6.33
2022-10-10T03:50:34.220Z,5.30
2022-10-10T03:53:03.931Z,5.00
2022-10-10T03:55:33.646Z,4.80
2022-10-10T03:58:03.386Z,5.63
2022-10-10T04:00:33.316Z,5.77
2022-10-10T04:03:06.944Z,4.60
2022-10-10T04:05:39.166Z,6.53
2022-10-10T04:08:09.891Z,6.63
2022-10-10T04:10:39.616Z,5.70
2022-10-10T04:13:09.371Z,5.20
2022-10-10T04:15:39.410Z,7.03
2022-10-10T04:18:12.151Z,5.37
2022-10-10T04:20:41.853Z,5.37
2022-10-10T04:23:11.609Z,6.40
2022-10-10T04:25:42.091Z,5.83
2022-10-10T04:28:14.190Z,7.80
2022-10-10T04:30:44.314Z,6.33
2022-10-10T04:33:16.693Z,7.30
2022-10-10T04:35:46.472Z,5.53
2022-10-10T04:38:16.219Z,5.17
2022-10-10T04:40:45.948Z,5.70
2022-10-10T04:43:15.690Z,5.93
2022-10-10T04:45:45.433Z,5.70
2022-10-10T04:48:17.880Z,5.33
2022-10-10T04:50:47.664Z,5.37
2022-10-10T04:53:17.365Z,5.77
2022-10-10T04:55:47.163Z,5.03
2022-10-10T04:58:17.028Z,5.60
2022-10-10T05:00:46.973Z,5.17
2022-10-10T05:03:19.366Z,7.67
2022-10-10T05:05:49.071Z,6.40
2022-10-10T05:08:19.158Z,5.67
2022-10-10T05:10:50.511Z,5.73
2022-10-10T05:13:20.241Z,6.27
2022-10-10T05:15:53.318Z,8.27
2022-10-10T05:18:25.893Z,6.80
2022-10-10T05:20:58.707Z,6.93
2022-10-10T05:23:32.405Z,5.93
2022-10-10T05:26:02.477Z,6.67
2022-10-10T05:28:32.283Z,5.50
2022-10-10T05:31:02.386Z,8.00
2022-10-10T05:33:36.038Z,6.77
2022-10-10T05:36:08.545Z,6.07
2022-10-10T05:38:38.674Z,5.23
2022-10-10T05:41:09.137Z,7.60
2022-10-10T05:43:38.888Z,5.33
2022-10-10T05:46:09.206Z,6.10
2022-10-10T05:48:41.888Z,7.27
2022-10-10T05:51:13.334Z,7.60
2022-10-10T05:53:43.349Z,6.27
2022-10-10T05:56:15.178Z,6.87
2022-10-10T05:58:45.037Z,5.90
2022-10-10T06:01:15.636Z,8.77
2022-10-10T06:03:52.785Z,5.80
2022-10-10T06:06:22.664Z,6.10
2022-10-10T06:08:52.758Z,6.03
2022-10-10T06:11:23.755Z,5.90
2022-10-10T06:13:54.485Z,7.93
2022-10-10T06:16:24.715Z,5.80
2022-10-10T06:18:58.144Z,8.00
2022-10-10T06:21:28.957Z,7.50
2022-10-10T06:23:59.592Z,6.43
2022-10-10T06:26:29.929Z,6.40
2022-10-10T06:28:59.788Z,6.77
2022-10-10T06:31:30.124Z,14.33
2022-10-10T06:34:02.466Z,6.73
2022-10-10T06:36:32.163Z,6.53
2022-10-10T06:39:01.946Z,6.03
2022-10-10T06:41:31.668Z,7.13
2022-10-10T06:44:01.452Z,6.33
2022-10-10T06:46:34.400Z,7.00
2022-10-10T06:49:07.114Z,7.53
2022-10-10T06:51:36.896Z,8.33
2022-10-10T06:54:07.126Z,6.13
2022-10-10T06:56:37.023Z,8.40
2022-10-10T06:59:06.951Z,7.20
2022-10-10T07:01:37.179Z,7.63
2022-10-10T07:04:09.649Z,8.70
2022-10-10T07:06:39.709Z,6.97
2022-10-10T07:09:09.631Z,6.20
2022-10-10T07:11:41.741Z,8.53
2022-10-10T07:14:11.481Z,7.70
2022-10-10T07:16:41.243Z,7.10
2022-10-10T07:19:13.893Z,7.27
2022-10-10T07:21:43.742Z,7.90
2022-10-10T07:24:13.639Z,7.40
2022-10-10T07:26:43.382Z,7.63
2022-10-10T07:29:13.377Z,10.00
2022-10-10T07:31:43.131Z,6.73
2022-10-10T07:34:15.511Z,9.43
2022-10-10T07:36:49.312Z,6.63
2022-10-10T07:39:22.519Z,7.77
2022-10-10T07:41:53.094Z,8.77
2022-10-10T07:44:23.690Z,8.53
2022-10-10T07:46:53.498Z,8.45
2022-10-10T07:49:25.873Z,8.73
2022-10-10T07:52:00.460Z,6.83
2022-10-10T07:54:31.886Z,8.00
2022-10-10T07:57:02.009Z,7.50
2022-10-10T07:59:31.843Z,7.78
2022-10-10T08:02:01.768Z,7.97
2022-10-10T08:04:35.535Z,8.32
2022-10-10T08:07:05.360Z,8.10
2022-10-10T08:09:35.167Z,8.27
2022-10-10T08:12:04.987Z,8.00
2022-10-10T08:14:35.476Z,10.03
2022-10-10T08:17:09.769Z,8.53
2022-10-10T08:19:44.652Z,9.23
2022-10-10T08:22:16.286Z,7.55
2022-10-10T08:24:46.147Z,7.90
2022-10-10T08:27:17.953Z,9.37
2022-10-10T08:29:47.846Z,7.72
2022-10-10T08:32:17.623Z,8.20
2022-10-10T08:34:50.753Z,9.90
2022-10-10T08:37:20.741Z,7.68
2022-10-10T08:39:51.603Z,9.77
2022-10-10T08:42:33.098Z,7.38
2022-10-10T08:45:06.865Z,8.65
2022-10-10T08:47:42.211Z,7.93
2022-10-10T08:50:21.715Z,7.03
2022-10-10T08:52:54.936Z,8.15
2022-10-10T08:55:31.156Z,10.60
2022-10-10T08:58:03.974Z,9.00
2022-10-10T09:00:41.284Z,8.30
2022-10-10T09:03:23.611Z,8.52
2022-10-10T09:06:08.169Z,9.65
2022-10-10T09:08:49.109Z,10.13
2022-10-10T09:11:30.423Z,9.45
2022-10-10T09:14:12.610Z,7.22
2022-10-10T09:16:49.784Z,8.40
2022-10-10T09:19:30.845Z,7.30
2022-10-10T09:22:08.374Z,6.72
2022-10-10T09:24:44.411Z,9.07
2022-10-10T09:27:19.118Z,9.82
2022-10-10T09:29:54.574Z,9.32
2022-10-10T09:32:27.104Z,11.60
2022-10-10T09:35:02.065Z,10.45
2022-10-10T09:37:47.749Z,9.80
2022-10-10T09:40:25.443Z,10.30
2022-10-10T09:42:55.467Z,7.90
2022-10-10T09:45:32.799Z,9.73
2022-10-10T09:48:02.520Z,10.40
2022-10-10T09:50:32.328Z,8.77
2022-10-10T09:53:04.880Z,7.78
2022-10-10T09:55:38.205Z,7.78
2022-10-10T09:58:19.496Z,8.95
2022-10-10T10:00:49.686Z,8.73
2022-10-10T10:03:21.140Z,12.25
2022-10-10T10:05:59.102Z,12.15
2022-10-10T10:08:35.026Z,7.65
2022-10-10T10:11:06.299Z,10.65
2022-10-10T10:13:38.522Z,10.25
2022-10-10T10:16:11.946Z,8.82
2022-10-10T10:18:44.713Z,8.10
2022-10-10T10:21:21.354Z,8.35
2022-10-10T10:24:00.343Z,10.55
2022-10-10T10:26:36.248Z,10.90
2022-10-10T10:29:06.191Z,12.73
2022-10-10T10:31:56.611Z,11.65
2022-10-10T10:34:51.442Z,10.63
2022-10-10T10:37:25.469Z,10.02
2022-10-10T10:40:15.106Z,10.48
2022-10-10T10:42:57.692Z,9.98
2022-10-10T10:45:35.918Z,12.13
2022-10-10T10:48:19.248Z,10.65
2022-10-10T10:50:55.384Z,9.98
2022-10-10T10:53:32.373Z,10.15
2022-10-10T10:56:14.709Z,8.27
2022-10-10T10:59:23.536Z,12.07
2022-10-10T11:01:58.138Z,10.48
2022-10-10T11:05:20.346Z,12.18
2022-10-10T11:07:53.247Z,9.90
2022-10-10T11:10:32.786Z,9.38
2022-10-10T11:13:17.505Z,9.40
2022-10-10T11:16:06.087Z,11.20
2022-10-10T11:18:43.411Z,9.70
2022-10-10T11:21:20.110Z,12.52
2022-10-10T11:23:55.828Z,14.75
2022-10-10T11:26:30.943Z,12.60
2022-10-10T11:29:08.648Z,12.00
2022-10-10T11:31:43.321Z,10.75
2022-10-10T11:34:22.718Z,10.95
2022-10-10T11:36:56.718Z,15.93
2022-10-10T11:39:30.008Z,15.50
2022-10-10T11:42:03.782Z,13.50
2022-10-10T11:44:40.720Z,24.10
2022-10-10T11:47:18.079Z,12.75
2022-10-10T11:49:56.314Z,12.15
2022-10-10T11:52:34.609Z,9.93
2022-10-10T11:55:12.077Z,12.65
2022-10-10T11:57:46.132Z,17.13
2022-10-10T12:00:20.959Z,11.70
2022-10-10T12:02:51.131Z,9.48
2022-10-10T12:05:26.042Z,13.38
2022-10-10T12:08:07.934Z,10.93
2022-10-10T12:10:43.072Z,10.88
2022-10-10T12:13:29.080Z,13.95
2022-10-10T12:16:08.127Z,16.40
2022-10-10T12:18:44.432Z,11.85
2022-10-10T12:21:17.024Z,13.38
2022-10-10T12:23:49.543Z,13.73
2022-10-10T12:26:22.079Z,13.30
2022-10-10T12:29:06.287Z,12.07
2022-10-10T12:31:40.206Z,14.57
2022-10-10T12:34:18.213Z,14.95
2022-10-10T12:37:23.378Z,14.13
2022-10-10T12:40:21.585Z,15.88
2022-10-10T12:43:22.534Z,13.48
2022-10-10T12:46:11.392Z,14.40
2022-10-10T12:48:44.021Z,11.23
2022-10-10T12:51:23.817Z,14.75
2022-10-10T12:53:57.740Z,16.42
2022-10-10T12:56:40.502Z,16.98
2022-10-10T12:59:21.326Z,15.40
2022-10-10T13:01:57.188Z,16.15
2022-10-10T13:04:30.143Z,12.35
2022-10-10T13:07:02.016Z,16.50
2022-10-10T13:09:37.254Z,14.75
2022-10-10T13:12:09.412Z,6.63
2022-10-10T13:14:43.859Z,6.05
2022-10-10T13:17:28.728Z,13.50
2022-10-10T13:20:03.009Z,5.63
2022-10-10T13:22:35.935Z,7.10
2022-10-10T13:25:06.940Z,6.03
2022-10-10T13:27:38.010Z,11.13
2022-10-10T13:30:10.110Z,8.18
2022-10-10T13:32:40.328Z,10.73
2022-10-10T13:35:18.435Z,7.45
2022-10-10T13:37:50.914Z,5.63
2022-10-10T13:40:22.625Z,5.05
2022-10-10T13:42:53.278Z,8.30
2022-10-10T13:45:37.689Z,5.55
2022-10-10T13:48:19.819Z,6.68
2022-10-10T13:51:03.804Z,5.22
2022-10-10T13:53:50.000Z,3.58
2022-10-10T13:56:23.850Z,8.52
2022-10-10T13:58:56.509Z,4.22
2022-10-10T14:01:39.249Z,9.18
2022-10-10T14:04:19.229Z,6.25
2022-10-10T14:07:01.027Z,7.85
2022-10-10T14:09:38.865Z,8.52
2022-10-10T14:12:16.135Z,14.93
2022-10-10T14:14:48.855Z,13.95
2022-10-10T14:17:20.182Z,12.27
2022-10-10T14:19:51.370Z,12.60
2022-10-10T14:22:24.495Z,8.23
2022-10-10T14:24:54.219Z,17.40
2022-10-10T14:27:28.517Z,15.65
2022-10-10T14:29:59.783Z,11.80
2022-10-10T14:32:29.802Z,10.82
2022-10-10T14:34:59.528Z,11.10
2022-10-10T14:37:32.270Z,9.52
2022-10-10T14:40:03.178Z,11.18
2022-10-10T14:42:32.994Z,7.20
2022-10-10T14:45:03.328Z,13.07
2022-10-10T14:47:33.044Z,15.40
2022-10-10T14:50:02.838Z,11.73
2022-10-10T14:52:35.235Z,12.48
2022-10-10T14:55:04.950Z,12.73
2022-10-10T14:57:34.689Z,11.55
2022-10-10T15:00:04.444Z,9.93
2022-10-10T15:02:34.282Z,11.30
2022-10-10T15:05:04.275Z,6.57
2022-10-10T15:07:36.621Z,7.88
2022-10-10T15:12:57.263Z,9.40
2022-10-10T15:15:27.022Z,13.43
2022-10-10T15:17:56.746Z,10.95
2022-10-10T15:20:31.367Z,11.50
2022-10-10T15:23:06.255Z,10.98
2022-10-10T15:25:36.604Z,9.05
2022-10-10T15:28:06.740Z,14.00
2022-10-10T15:30:40.679Z,10.68
2022-10-10T15:33:12.584Z,12.20
2022-10-10T15:36:07.309Z,10.25
2022-10-10T15:38:36.447Z,10.18
2022-10-10T15:41:09.196Z,8.07
2022-10-10T15:43:47.216Z,7.60
2022-10-10T15:46:16.981Z,9.07
2022-10-10T15:48:46.673Z,9.05
2022-10-10T15:51:16.827Z,7.28
2022-10-10T15:53:52.161Z,5.88
2022-10-10T15:56:22.012Z,6.47
2022-10-10T15:58:51.760Z,10.32
2022-10-10T16:01:23.050Z,7.28
2022-10-10T16:03:53.110Z,7.43
2022-10-10T16:06:25.426Z,7.10
2022-10-10T16:09:10.357Z,9.02
2022-10-10T16:11:47.626Z,7.22
2022-10-10T16:14:17.369Z,7.13
2022-10-10T16:16:47.102Z,8.48
2022-10-10T16:19:16.999Z,8.32
2022-10-10T16:21:46.722Z,11.50
2022-10-10T16:24:19.209Z,5.65
2022-10-10T16:26:49.003Z,9.00
2022-10-10T16:29:18.868Z,7.30
2022-10-10T16:31:48.824Z,9.13
2022-10-10T16:34:19.636Z,7.32
2022-10-10T16:36:49.407Z,6.18
2022-10-10T16:39:21.782Z,8.75
2022-10-10T16:41:51.516Z,8.90
2022-10-10T16:44:21.260Z,6.70
2022-10-10T16:46:51.017Z,8.40
2022-10-10T16:49:21.449Z,9.65
2022-10-10T16:51:51.197Z,13.05
2022-10-10T16:54:23.752Z,6.90
2022-10-10T16:56:53.507Z,8.77
2022-10-10T16:59:23.327Z,6.60
2022-10-10T17:01:53.131Z,7.28
2022-10-10T17:04:22.910Z,9.07
2022-10-10T17:06:52.646Z,7.13
2022-10-10T17:09:25.113Z,7.18
2022-10-10T17:11:54.842Z,7.20
2022-10-10T17:14:24.585Z,7.45
2022-10-10T17:19:44.253Z,7.07
2022-10-10T17:22:14.007Z,11.55
2022-10-10T17:24:46.370Z,9.55
2022-10-10T17:27:16.332Z,8.68
2022-10-10T17:29:46.242Z,6.22
2022-10-10T17:32:15.955Z,7.20
2022-10-10T17:34:45.696Z,6.22
2022-10-10T17:37:15.489Z,7.93
2022-10-10T17:39:48.304Z,6.78
2022-10-10T17:42:18.224Z,7.00
2022-10-10T17:44:52.515Z,8.63
2022-10-10T17:47:25.738Z,6.97
2022-10-10T17:49:55.843Z,9.88
2022-10-10T17:52:25.612Z,9.02
2022-10-10T17:54:57.928Z,8.50
2022-10-10T17:57:27.715Z,7.05
2022-10-10T17:59:57.463Z,8.73
2022-10-10T18:02:27.300Z,8.85
2022-10-10T18:04:57.207Z,9.50
2022-10-10T18:07:26.992Z,7.32
2022-10-10T18:09:59.396Z,9.95
2022-10-10T18:12:29.231Z,9.70
2022-10-10T18:15:00.671Z,10.55
2022-10-10T18:17:30.396Z,9.25
2022-10-10T18:20:00.177Z,7.90
2022-10-10T18:22:30.204Z,5.05
2022-10-10T18:25:02.521Z,6.00
2022-10-10T18:27:32.690Z,7.93
2022-10-10T18:30:02.497Z,6.03
2022-10-10T18:32:32.199Z,5.90
2022-10-10T18:35:02.125Z,7.05
2022-10-10T18:37:31.989Z,7.18
2022-10-10T18:40:04.355Z,5.65
2022-10-10T18:42:34.116Z,7.03
2022-10-10T18:45:03.867Z,4.75
2022-10-10T18:47:33.482Z,7.10
2022-10-10T18:50:03.549Z,10.98
2022-10-10T18:52:33.395Z,8.75
2022-10-10T18:55:05.861Z,6.82
2022-10-10T18:57:39.055Z,7.60
2022-10-10T19:00:10.607Z,6.93
2022-10-10T19:02:40.350Z,10.70
2022-10-10T19:05:10.498Z,8.88
2022-10-10T19:07:40.219Z,8.70
2022-10-10T19:10:12.709Z,7.95
2022-10-10T19:12:47.201Z,7.80
2022-10-10T19:15:17.521Z,9.88
2022-10-10T19:17:47.218Z,5.40
2022-10-10T19:20:16.938Z,8.25
2022-10-10T19:22:46.660Z,7.47
2022-10-10T19:25:19.062Z,8.25
2022-10-10T19:27:48.896Z,6.18
2022-10-10T19:30:18.866Z,4.53
2022-10-10T19:32:48.677Z,6.28
2022-10-10T19:35:18.599Z,8.95
2022-10-10T19:37:48.347Z,5.75
2022-10-10T19:40:20.939Z,5.78
2022-10-10T19:42:50.710Z,8.38
2022-10-10T19:45:20.621Z,7.47
2022-10-10T19:47:50.353Z,7.32
2022-10-10T19:50:20.167Z,8.20
2022-10-10T19:52:49.932Z,7.80
2022-10-10T19:55:22.503Z,8.43
2022-10-10T19:57:52.228Z,9.20
2022-10-10T20:00:22.078Z,7.78
2022-10-10T20:02:51.869Z,8.38
2022-10-10T20:05:21.699Z,6.78
2022-10-10T20:07:53.472Z,8.27
2022-10-10T20:10:25.828Z,8.07
2022-10-10T20:12:55.929Z,6.78
2022-10-10T20:15:25.650Z,13.05
2022-10-10T20:17:55.432Z,6.72
2022-10-10T20:20:25.156Z,6.72
2022-10-10T20:22:54.906Z,6.50
2022-10-10T20:25:27.347Z,7.38
2022-10-10T20:27:57.076Z,7.03
2022-10-10T20:30:27.210Z,5.13
2022-10-10T20:32:56.957Z,6.53
2022-10-10T20:35:26.689Z,9.02
2022-10-10T20:37:56.435Z,6.47
2022-10-10T20:40:28.899Z,6.22
2022-10-10T20:42:58.748Z,5.22
2022-10-10T20:45:28.419Z,4.67
2022-10-10T20:47:58.130Z,6.45
2022-10-10T20:50:27.822Z,5.77
2022-10-10T20:52:57.519Z,4.57
2022-10-10T20:55:29.875Z,6.07
2022-10-10T20:57:59.570Z,5.05
2022-10-10T21:00:29.469Z,6.50
2022-10-10T21:02:59.410Z,6.22
2022-10-10T21:05:29.134Z,6.97
2022-10-10T21:07:59.768Z,5.65
2022-10-10T21:10:32.098Z,7.00
2022-10-10T21:13:01.858Z,4.35
2022-10-10T21:15:31.553Z,6.03
2022-10-10T21:18:01.281Z,5.95
2022-10-10T21:20:30.999Z,13.53
2022-10-10T21:23:00.696Z,6.50
2022-10-10T21:25:33.011Z,5.32
2022-10-10T21:28:02.776Z,6.43
2022-10-10T21:30:32.483Z,6.90
2022-10-10T21:33:02.216Z,9.27
2022-10-10T21:35:31.904Z,9.03
2022-10-10T21:38:01.618Z,4.72
2022-10-10T21:40:33.909Z,5.85
2022-10-10T21:43:03.622Z,4.63
2022-10-10T21:45:36.422Z,4.23
2022-10-10T21:48:06.573Z,8.07
2022-10-10T21:50:37.359Z,7.07
2022-10-10T21:53:11.246Z,6.17
2022-10-10T21:55:43.629Z,5.33
2022-10-10T21:58:13.361Z,6.45
2022-10-10T22:00:43.356Z,6.70
2022-10-10T22:03:13.086Z,5.88
2022-10-10T22:05:44.865Z,6.38
2022-10-10T22:08:14.589Z,6.25
2022-10-10T22:10:47.371Z,5.10
2022-10-10T22:13:17.110Z,5.75
2022-10-10T22:15:47.082Z,11.23
2022-10-10T22:18:16.820Z,6.67
2022-10-10T22:20:46.545Z,6.93
2022-10-10T22:23:16.309Z,5.88
2022-10-10T22:25:52.390Z,5.93
2022-10-10T22:28:22.671Z,3.93
2022-10-10T22:30:52.435Z,4.50
2022-10-10T22:33:22.160Z,7.07
2022-10-10T22:35:51.857Z,5.80
2022-10-10T22:38:21.562Z,10.77
2022-10-10T22:40:53.901Z,7.80
2022-10-10T22:43:26.783Z,6.53
2022-10-10T22:45:57.634Z,7.27
2022-10-10T22:48:27.612Z,5.53
2022-10-10T22:51:04.769Z,5.25
2022-10-10T22:53:34.844Z,7.47
2022-10-10T22:56:07.961Z,8.30
2022-10-10T22:58:38.189Z,6.63
2022-10-10T23:01:10.075Z,6.33
2022-10-10T23:03:40.017Z,7.30
2022-10-10T23:06:10.681Z,9.48
2022-10-10T23:08:40.874Z,4.25
2022-10-10T23:11:13.309Z,4.63
2022-10-10T23:13:43.134Z,4.13
2022-10-10T23:16:13.825Z,6.57
2022-10-10T23:18:43.568Z,4.70
2022-10-10T23:21:13.392Z,5.68
2022-10-10T23:23:43.445Z,6.13
2022-10-10T23:26:16.017Z,6.47
2022-10-10T23:28:46.780Z,5.82
2022-10-10T23:31:16.921Z,5.10
2022-10-10T23:33:47.091Z,6.23
2022-10-10T23:36:18.191Z,8.25
2022-10-10T23:38:48.287Z,8.05
2022-10-10T23:41:20.872Z,8.23
2022-10-10T23:43:50.643Z,9.18
2022-10-10T23:46:20.750Z,7.80
2022-10-10T23:48:50.506Z,6.50
2022-10-10T23:51:20.556Z,8.50
2022-10-10T23:53:50.431Z,4.97
2022-10-10T23:56:22.821Z,6.43
2022-10-10T23:58:52.569Z,8.53
